createdAt,value
2019-03-09T00:00:46.766Z,1017.4
2019-03-09T00:01:46.715Z,1017.4
2019-03-09T00:02:46.706Z,1017.4
2019-03-09T00:03:46.777Z,1017.4
2019-03-09T00:04:46.805Z,1017.4
2019-03-09T00:05:46.788Z,1017.3
2019-03-09T00:06:46.837Z,1017.4
2019-03-09T00:07:46.818Z,1017.5
2019-03-09T00:08:46.953Z,1017.4
2019-03-09T00:09:46.925Z,1017.4
2019-03-09T00:10:46.962Z,1017.3
2019-03-09T00:11:46.957Z,1017.3
2019-03-09T00:12:47.008Z,1017.4
2019-03-09T00:13:47.044Z,1017.3
2019-03-09T00:14:47.040Z,1017.2
2019-03-09T00:15:47.068Z,1017.2
2019-03-09T00:16:49.613Z,1017.2
2019-03-09T00:17:47.166Z,1017.2
2019-03-09T00:18:47.160Z,1017.2
2019-03-09T00:19:47.184Z,1017.2
2019-03-09T00:20:47.203Z,1017.3
2019-03-09T00:21:47.238Z,1017.2
2019-03-09T00:22:47.289Z,1017.3
2019-03-09T00:23:47.291Z,1017.3
2019-03-09T00:24:47.316Z,1017.4
2019-03-09T00:25:47.327Z,1017.3
2019-03-09T00:26:47.363Z,1017.3
2019-03-09T00:27:47.402Z,1017.3
2019-03-09T00:28:47.415Z,1017.2
2019-03-09T00:29:47.464Z,1017.2
2019-03-09T00:30:47.487Z,1017.2
2019-03-09T00:31:47.511Z,1017.2
2019-03-09T00:32:47.539Z,1017.3
2019-03-09T00:33:47.567Z,1017.2
2019-03-09T00:34:47.628Z,1017.2
2019-03-09T00:35:47.575Z,1017.1
2019-03-09T00:36:47.649Z,1017.1
2019-03-09T00:37:47.633Z,1017.1
2019-03-09T00:38:47.647Z,1017.1
2019-03-09T00:39:47.654Z,1017.1
2019-03-09T00:40:47.689Z,1017.1
2019-03-09T00:41:47.827Z,1017.1
2019-03-09T00:42:47.715Z,1017.1
2019-03-09T00:43:47.703Z,1017.1
2019-03-09T00:44:47.785Z,1017.1
2019-03-09T00:45:47.770Z,1017.2
2019-03-09T00:46:47.784Z,1017.1
2019-03-09T00:47:47.850Z,1017
2019-03-09T00:48:47.845Z,1017.1
2019-03-09T00:49:47.820Z,1016.9
2019-03-09T00:50:47.842Z,1016.9
2019-03-09T00:51:47.890Z,1017
2019-03-09T00:52:47.893Z,1017
2019-03-09T00:53:47.897Z,1016.9
2019-03-09T00:54:47.917Z,1017
2019-03-09T00:55:47.913Z,1016.9
2019-03-09T00:56:47.945Z,1017
2019-03-09T00:57:47.974Z,1016.9
2019-03-09T00:58:47.964Z,1016.9
2019-03-09T00:59:47.984Z,1016.9
2019-03-09T01:00:47.992Z,1017
2019-03-09T01:01:47.981Z,1016.9
2019-03-09T01:02:48.004Z,1016.8
2019-03-09T01:03:48.001Z,1016.8
2019-03-09T01:04:48.032Z,1016.9
2019-03-09T01:05:48.081Z,1016.8
2019-03-09T01:06:48.054Z,1016.8
2019-03-09T01:07:48.060Z,1016.7
2019-03-09T01:08:48.065Z,1016.8
2019-03-09T01:09:48.073Z,1016.7
2019-03-09T01:10:48.127Z,1016.8
2019-03-09T01:11:48.069Z,1016.7
2019-03-09T01:12:48.077Z,1016.8
2019-03-09T01:13:48.090Z,1016.7
2019-03-09T01:14:48.141Z,1016.6
2019-03-09T01:15:48.144Z,1016.6
2019-03-09T01:16:48.087Z,1016.6
2019-03-09T01:17:48.107Z,1016.6
2019-03-09T01:18:48.210Z,1016.6
2019-03-09T01:19:48.113Z,1016.6
2019-03-09T01:20:48.149Z,1016.6
2019-03-09T01:21:48.118Z,1016.5
2019-03-09T01:22:48.118Z,1016.5
2019-03-09T01:23:48.143Z,1016.5
2019-03-09T01:24:48.128Z,1016.5
2019-03-09T01:25:48.117Z,1016.5
2019-03-09T01:26:48.143Z,1016.5
2019-03-09T01:27:48.178Z,1016.6
2019-03-09T01:28:48.169Z,1016.5
2019-03-09T01:29:48.183Z,1016.4
2019-03-09T01:30:48.193Z,1016.5
2019-03-09T01:31:48.194Z,1016.5
2019-03-09T01:32:48.187Z,1016.4
2019-03-09T01:33:48.235Z,1016.5
2019-03-09T01:34:48.221Z,1016.5
2019-03-09T01:35:48.196Z,1016.5
2019-03-09T01:36:48.215Z,1016.4
2019-03-09T01:37:48.233Z,1016.4
2019-03-09T01:38:48.233Z,1016.4
2019-03-09T01:39:48.254Z,1016.4
2019-03-09T01:40:48.215Z,1016.4
2019-03-09T01:41:48.212Z,1016.4
2019-03-09T01:42:48.224Z,1016.3
2019-03-09T01:43:48.270Z,1016.4
2019-03-09T01:44:48.253Z,1016.4
2019-03-09T01:45:48.253Z,1016.4
2019-03-09T01:46:48.264Z,1016.3
2019-03-09T01:47:48.258Z,1016.4
2019-03-09T01:48:48.251Z,1016.4
2019-03-09T01:49:50.451Z,1016.4
2019-03-09T01:50:48.274Z,1016.3
2019-03-09T01:51:48.258Z,1016.3
2019-03-09T01:52:48.283Z,1016.3
2019-03-09T01:53:48.274Z,1016.3
2019-03-09T01:54:48.277Z,1016.3
2019-03-09T01:55:48.284Z,1016.2
2019-03-09T01:56:48.280Z,1016.3
2019-03-09T01:57:48.343Z,1016.4
2019-03-09T01:58:48.387Z,1016.2
2019-03-09T01:59:48.347Z,1016.3
2019-03-09T02:00:48.369Z,1016.3
2019-03-09T02:01:48.372Z,1016.4
2019-03-09T02:02:48.382Z,1016.3
2019-03-09T02:03:48.408Z,1016.3
2019-03-09T02:04:48.400Z,1016.3
2019-03-09T02:05:48.477Z,1016.4
2019-03-09T02:06:48.440Z,1016.3
2019-03-09T02:07:48.469Z,1016.2
2019-03-09T02:08:48.506Z,1016.3
2019-03-09T02:09:48.622Z,1016.1
2019-03-09T02:10:48.579Z,1016.2
2019-03-09T02:11:48.514Z,1016.1
2019-03-09T02:12:48.540Z,1016.1
2019-03-09T02:13:48.540Z,1016.1
2019-03-09T02:14:48.582Z,1016.1
2019-03-09T02:15:48.589Z,1016
2019-03-09T02:16:48.557Z,1016
2019-03-09T02:17:48.559Z,1016.1
2019-03-09T02:18:48.598Z,1015.9
2019-03-09T02:19:48.589Z,1015.9
2019-03-09T02:20:48.577Z,1016
2019-03-09T02:21:48.697Z,1015.9
2019-03-09T02:22:48.626Z,1015.9
2019-03-09T02:23:48.674Z,1015.8
2019-03-09T02:24:48.638Z,1015.8
2019-03-09T02:25:48.666Z,1015.8
2019-03-09T02:26:48.604Z,1015.7
2019-03-09T02:27:48.609Z,1015.6
2019-03-09T02:28:48.608Z,1015.6
2019-03-09T02:29:48.605Z,1015.6
2019-03-09T02:30:48.639Z,1015.6
2019-03-09T02:31:48.689Z,1015.5
2019-03-09T02:32:48.673Z,1015.5
2019-03-09T02:33:48.641Z,1015.4
2019-03-09T02:34:48.766Z,1015.4
2019-03-09T02:35:48.716Z,1015.4
2019-03-09T02:36:48.739Z,1015.4
2019-03-09T02:37:48.784Z,1015.3
2019-03-09T02:38:48.806Z,1015.3
2019-03-09T02:39:48.915Z,1015.4
2019-03-09T02:40:48.917Z,1015.3
2019-03-09T02:41:48.906Z,1015.2
2019-03-09T02:42:48.960Z,1015.3
2019-03-09T02:43:48.987Z,1015.3
2019-03-09T02:44:49.068Z,1015.2
2019-03-09T02:45:49.084Z,1015.2
2019-03-09T02:46:49.096Z,1015.2
2019-03-09T02:47:49.142Z,1015.2
2019-03-09T02:48:49.168Z,1015.2
2019-03-09T02:49:49.206Z,1015.2
2019-03-09T02:50:49.216Z,1015.2
2019-03-09T02:51:49.240Z,1015.2
2019-03-09T02:52:49.296Z,1015.1
2019-03-09T02:53:49.317Z,1015.1
2019-03-09T02:54:49.380Z,1015.1
2019-03-09T02:55:49.372Z,1015.1
2019-03-09T02:56:49.461Z,1015.2
2019-03-09T02:57:49.439Z,1015
2019-03-09T02:58:50.012Z,1015
2019-03-09T02:59:49.498Z,1015
2019-03-09T03:00:49.519Z,1015
2019-03-09T03:01:49.528Z,1015.1
2019-03-09T03:02:49.551Z,1015
2019-03-09T03:03:49.632Z,1015.1
2019-03-09T03:04:49.643Z,1015
2019-03-09T03:05:49.636Z,1015
2019-03-09T03:06:49.698Z,1015
2019-03-09T03:07:49.730Z,1015
2019-03-09T03:08:49.734Z,1015
2019-03-09T03:09:49.722Z,1015
2019-03-09T03:10:49.782Z,1014.9
2019-03-09T03:11:49.909Z,1014.9
2019-03-09T03:12:49.863Z,1014.9
2019-03-09T03:13:49.887Z,1014.9
2019-03-09T03:14:49.883Z,1014.7
2019-03-09T03:15:49.869Z,1014.7
2019-03-09T03:16:49.955Z,1014.6
2019-03-09T03:17:49.935Z,1014.6
2019-03-09T03:18:49.963Z,1014.6
2019-03-09T03:19:49.974Z,1014.7
2019-03-09T03:20:49.969Z,1014.6
2019-03-09T03:21:50.024Z,1014.6
2019-03-09T03:22:50.058Z,1014.6
2019-03-09T03:23:50.046Z,1014.7
2019-03-09T03:24:50.101Z,1014.6
2019-03-09T03:25:50.082Z,1014.6
2019-03-09T03:26:50.145Z,1014.6
2019-03-09T03:27:50.128Z,1014.7
2019-03-09T03:28:50.132Z,1014.6
2019-03-09T03:29:50.158Z,1014.7
2019-03-09T03:30:50.184Z,1014.6
2019-03-09T03:31:50.203Z,1014.5
2019-03-09T03:32:50.223Z,1014.6
2019-03-09T03:33:50.205Z,1014.5
2019-03-09T03:34:50.226Z,1014.6
2019-03-09T03:35:50.230Z,1014.6
2019-03-09T03:36:50.286Z,1014.5
2019-03-09T03:37:50.267Z,1014.5
2019-03-09T03:38:50.273Z,1014.5
2019-03-09T03:39:50.302Z,1014.5
2019-03-09T03:40:50.285Z,1014.4
2019-03-09T03:41:50.309Z,1014.5
2019-03-09T03:42:50.308Z,1014.5
2019-03-09T03:43:50.329Z,1014.4
2019-03-09T03:44:50.304Z,1014.4
2019-03-09T03:45:50.340Z,1014.4
2019-03-09T03:46:50.359Z,1014.3
2019-03-09T03:47:50.423Z,1014.2
2019-03-09T03:48:50.349Z,1014.1
2019-03-09T03:49:50.374Z,1014.1
2019-03-09T03:50:50.395Z,1014.2
2019-03-09T03:51:50.348Z,1014.2
2019-03-09T03:52:50.347Z,1014.1
2019-03-09T03:53:50.361Z,1014
2019-03-09T03:54:50.414Z,1013.9
2019-03-09T03:55:50.413Z,1013.9
2019-03-09T03:56:50.372Z,1014
2019-03-09T03:57:50.390Z,1014
2019-03-09T03:58:50.377Z,1014
2019-03-09T03:59:50.400Z,1013.9
2019-03-09T04:00:50.426Z,1013.9
2019-03-09T04:01:50.447Z,1013.9
2019-03-09T04:02:50.474Z,1014
2019-03-09T04:03:50.593Z,1013.9
2019-03-09T04:04:50.569Z,1013.9
2019-03-09T04:05:50.623Z,1013.8
2019-03-09T04:06:50.629Z,1013.8
2019-03-09T04:07:50.651Z,1013.8
2019-03-09T04:08:50.701Z,1013.8
2019-03-09T04:09:50.698Z,1013.9
2019-03-09T04:10:50.727Z,1013.8
2019-03-09T04:11:50.761Z,1013.8
2019-03-09T04:12:50.787Z,1013.8
2019-03-09T04:13:50.809Z,1013.7
2019-03-09T04:14:50.867Z,1013.7
2019-03-09T04:15:50.894Z,1013.6
2019-03-09T04:16:50.991Z,1013.7
2019-03-09T04:17:51.032Z,1013.7
2019-03-09T04:18:50.917Z,1013.7
2019-03-09T04:19:50.989Z,1013.6
2019-03-09T04:20:50.998Z,1013.6
2019-03-09T04:21:51.026Z,1013.7
2019-03-09T04:22:51.065Z,1013.6
2019-03-09T04:23:51.044Z,1013.6
2019-03-09T04:24:51.073Z,1013.6
2019-03-09T04:25:51.088Z,1013.6
2019-03-09T04:26:51.114Z,1013.6
2019-03-09T04:27:51.150Z,1013.5
2019-03-09T04:28:51.176Z,1013.6
2019-03-09T04:29:51.189Z,1013.5
2019-03-09T04:30:51.241Z,1013.5
2019-03-09T04:31:51.268Z,1013.5
2019-03-09T04:32:51.358Z,1013.4
2019-03-09T04:33:51.281Z,1013.4
2019-03-09T04:34:51.296Z,1013.3
2019-03-09T04:35:51.301Z,1013.3
2019-03-09T04:36:51.289Z,1013.3
2019-03-09T04:37:51.315Z,1013.3
2019-03-09T04:38:51.383Z,1013.2
2019-03-09T04:39:51.394Z,1013.2
2019-03-09T04:40:51.449Z,1013.2
2019-03-09T04:41:51.411Z,1013.2
2019-03-09T04:42:51.431Z,1013.2
2019-03-09T04:43:51.581Z,1013
2019-03-09T04:44:51.465Z,1013
2019-03-09T04:45:51.458Z,1013.1
2019-03-09T04:46:51.508Z,1013
2019-03-09T04:47:51.509Z,1013
2019-03-09T04:48:51.545Z,1013.1
2019-03-09T04:49:51.544Z,1013
2019-03-09T04:50:51.573Z,1012.9
2019-03-09T04:51:51.577Z,1012.9
2019-03-09T04:52:51.600Z,1012.9
2019-03-09T04:53:51.636Z,1012.9
2019-03-09T04:54:51.672Z,1012.8
2019-03-09T04:55:51.655Z,1012.9
2019-03-09T04:56:51.703Z,1012.7
2019-03-09T04:57:51.704Z,1012.7
2019-03-09T04:58:51.787Z,1012.7
2019-03-09T04:59:51.727Z,1012.7
2019-03-09T05:00:51.764Z,1012.6
2019-03-09T05:01:51.748Z,1012.6
2019-03-09T05:02:51.783Z,1012.7
2019-03-09T05:03:51.785Z,1012.8
2019-03-09T05:04:51.789Z,1012.7
2019-03-09T05:05:51.831Z,1012.6
2019-03-09T05:06:51.842Z,1012.5
2019-03-09T05:07:51.811Z,1012.5
2019-03-09T05:08:51.854Z,1012.5
2019-03-09T05:09:51.841Z,1012.5
2019-03-09T05:10:51.890Z,1012.5
2019-03-09T05:11:51.880Z,1012.5
2019-03-09T05:12:52.876Z,1012.4
2019-03-09T05:13:51.880Z,1012.4
2019-03-09T05:14:51.914Z,1012.4
2019-03-09T05:15:51.899Z,1012.6
2019-03-09T05:16:51.940Z,1012.4
2019-03-09T05:17:51.913Z,1012.4
2019-03-09T05:18:51.952Z,1012.4
2019-03-09T05:19:51.940Z,1012.3
2019-03-09T05:20:51.943Z,1012.3
2019-03-09T05:21:51.925Z,1012.3
2019-03-09T05:22:51.918Z,1012.1
2019-03-09T05:23:51.924Z,1012.2
2019-03-09T05:24:51.963Z,1012.1
2019-03-09T05:25:51.962Z,1012.1
2019-03-09T05:26:51.959Z,1012.2
2019-03-09T05:27:51.958Z,1012.1
2019-03-09T05:28:51.972Z,1012.1
2019-03-09T05:29:51.981Z,1012.1
2019-03-09T05:30:51.971Z,1012
2019-03-09T05:31:51.985Z,1012.1
2019-03-09T05:32:51.999Z,1012.2
2019-03-09T05:33:51.966Z,1012.1
2019-03-09T05:34:52.015Z,1012
2019-03-09T05:35:52.009Z,1012.1
2019-03-09T05:36:52.052Z,1012.1
2019-03-09T05:37:52.036Z,1014
2019-03-09T05:38:52.542Z,1012.1
2019-03-09T05:39:52.009Z,1012
2019-03-09T05:40:52.030Z,1012
2019-03-09T05:41:52.026Z,1012
2019-03-09T05:42:52.060Z,1011.9
2019-03-09T05:43:52.033Z,1011.9
2019-03-09T05:44:52.060Z,1011.9
2019-03-09T05:45:52.069Z,1011.8
2019-03-09T05:46:52.055Z,1011.9
2019-03-09T05:47:52.052Z,1011.8
2019-03-09T05:48:52.078Z,1011.8
2019-03-09T05:49:52.071Z,1011.6
2019-03-09T05:50:52.096Z,1011.7
2019-03-09T05:51:52.095Z,1011.8
2019-03-09T05:52:52.131Z,1011.7
2019-03-09T05:53:52.156Z,1011.7
2019-03-09T05:54:52.203Z,1011.7
2019-03-09T05:55:52.231Z,1011.7
2019-03-09T05:56:52.241Z,1011.6
2019-03-09T05:57:52.313Z,1011.6
2019-03-09T05:58:52.332Z,1011.6
2019-03-09T05:59:52.324Z,1011.6
2019-03-09T06:00:52.330Z,1011.7
2019-03-09T06:01:52.390Z,1011.6
2019-03-09T06:02:52.368Z,1011.6
2019-03-09T06:03:52.444Z,1011.5
2019-03-09T06:04:52.418Z,1011.6
2019-03-09T06:05:52.404Z,1011.6
2019-03-09T06:06:52.469Z,1011.6
2019-03-09T06:07:52.444Z,1011.5
2019-03-09T06:08:52.481Z,1011.5
2019-03-09T06:09:52.538Z,1011.5
2019-03-09T06:10:52.486Z,1011.5
2019-03-09T06:11:52.546Z,1011.5
2019-03-09T06:12:52.545Z,1011.4
2019-03-09T06:13:52.562Z,1011.5
2019-03-09T06:14:52.584Z,1011.4
2019-03-09T06:15:52.621Z,1011.4
2019-03-09T06:16:52.605Z,1011.5
2019-03-09T06:17:52.592Z,1011.4
2019-03-09T06:18:52.621Z,1011.5
2019-03-09T06:19:52.669Z,1011.3
2019-03-09T06:20:52.653Z,1011.3
2019-03-09T06:21:52.696Z,1011.4
2019-03-09T06:22:52.685Z,1011.3
2019-03-09T06:23:52.677Z,1011.4
2019-03-09T06:24:52.723Z,1011.4
2019-03-09T06:25:52.716Z,1011.4
2019-03-09T06:26:52.764Z,1011.3
2019-03-09T06:27:52.742Z,1011.4
2019-03-09T06:28:52.753Z,1011.4
2019-03-09T06:29:52.794Z,1011.4
2019-03-09T06:30:52.773Z,1011.5
2019-03-09T06:31:52.758Z,1011.3
2019-03-09T06:32:52.798Z,1011.4
2019-03-09T06:33:52.850Z,1011.3
2019-03-09T06:34:52.826Z,1011.4
2019-03-09T06:35:52.851Z,1011.5
2019-03-09T06:36:52.827Z,1011.4
2019-03-09T06:37:52.829Z,1011.3
2019-03-09T06:38:52.840Z,1011.2
2019-03-09T06:39:52.845Z,1011.2
2019-03-09T06:41:02.386Z,1011.2
2019-03-09T06:41:52.849Z,1011.2
2019-03-09T06:42:52.815Z,1011.2
2019-03-09T06:43:52.934Z,1011.2
2019-03-09T06:44:52.896Z,1011.2
2019-03-09T06:45:52.849Z,1011.2
2019-03-09T06:46:52.859Z,1011.3
2019-03-09T06:47:52.859Z,1011.2
2019-03-09T06:48:52.901Z,1011.3
2019-03-09T06:49:52.958Z,1011.3
2019-03-09T06:50:52.965Z,1011.2
2019-03-09T06:51:52.973Z,1011.2
2019-03-09T06:52:53.022Z,1011.3
2019-03-09T06:53:53.065Z,1011.4
2019-03-09T06:54:53.106Z,1011.3
2019-03-09T06:55:53.120Z,1011.3
2019-03-09T06:56:53.173Z,1011.5
2019-03-09T06:57:53.187Z,1011.3
2019-03-09T06:58:53.245Z,1011.4
2019-03-09T06:59:53.335Z,1011.4
2019-03-09T07:00:53.288Z,1011.4
2019-03-09T07:01:53.307Z,1011.4
2019-03-09T07:02:53.363Z,1011.4
2019-03-09T07:03:53.457Z,1011.2
2019-03-09T07:04:53.430Z,1011.3
2019-03-09T07:05:53.439Z,1011.4
2019-03-09T07:06:53.498Z,1011.4
2019-03-09T07:07:53.490Z,1011.4
2019-03-09T07:08:53.606Z,1011.4
2019-03-09T07:09:54.576Z,1011.3
2019-03-09T07:10:53.568Z,1011.3
2019-03-09T07:11:53.610Z,1011.3
2019-03-09T07:12:53.619Z,1011.3
2019-03-09T07:13:53.625Z,1011.3
2019-03-09T07:14:53.704Z,1011.3
2019-03-09T07:15:53.679Z,1011.5
2019-03-09T07:16:53.730Z,1011.5
2019-03-09T07:17:53.791Z,1011.3
2019-03-09T07:18:53.778Z,1011.4
2019-03-09T07:19:53.903Z,1011.4
2019-03-09T07:20:53.853Z,1011.3
2019-03-09T07:21:53.855Z,1011.4
2019-03-09T07:22:53.957Z,1011.5
2019-03-09T07:23:53.910Z,1011.4
2019-03-09T07:24:53.853Z,1011.5
2019-03-09T07:25:53.872Z,1011.6
2019-03-09T07:26:53.873Z,1011.3
2019-03-09T07:27:53.884Z,1011.6
2019-03-09T07:28:53.894Z,1011.5
2019-03-09T07:29:53.971Z,1011.7
2019-03-09T07:30:53.862Z,1011.5
2019-03-09T07:31:53.907Z,1011.5
2019-03-09T07:32:53.928Z,1011.7
2019-03-09T07:33:53.899Z,1011.6
2019-03-09T07:34:53.917Z,1011.7
2019-03-09T07:35:54.914Z,1011.7
2019-03-09T07:36:53.935Z,1011.5
2019-03-09T07:37:53.924Z,1011.6
2019-03-09T07:38:53.959Z,1011.7
2019-03-09T07:39:53.959Z,1011.7
2019-03-09T07:40:54.014Z,1011.7
2019-03-09T07:41:53.973Z,1011.7
2019-03-09T07:42:53.956Z,1011.7
2019-03-09T07:43:54.011Z,1011.6
2019-03-09T07:44:54.027Z,1011.7
2019-03-09T07:45:54.044Z,1011.5
2019-03-09T07:46:53.989Z,1011.5
2019-03-09T07:47:53.987Z,1011.6
2019-03-09T07:48:54.025Z,1011.4
2019-03-09T07:49:54.033Z,1011.5
2019-03-09T07:50:54.059Z,1011.4
2019-03-09T07:51:54.084Z,1011.5
2019-03-09T07:52:54.055Z,1011.5
2019-03-09T07:53:54.055Z,1011.5
2019-03-09T07:54:54.064Z,1011.4
2019-03-09T07:55:54.141Z,1011.6
2019-03-09T07:56:54.104Z,1011.4
2019-03-09T07:57:54.091Z,1011.4
2019-03-09T07:58:54.129Z,1011.4
2019-03-09T07:59:54.569Z,1011.4
2019-03-09T08:00:54.512Z,1011.5
2019-03-09T08:01:54.525Z,1011.5
2019-03-09T08:02:54.588Z,1011.4
2019-03-09T08:03:54.416Z,1011.5
2019-03-09T08:04:54.570Z,1011.5
2019-03-09T08:05:54.375Z,1011.5
2019-03-09T08:06:54.549Z,1011.5
2019-03-09T08:07:54.552Z,1011.3
2019-03-09T08:08:54.520Z,1011.4
2019-03-09T08:09:54.470Z,1011.3
2019-03-09T08:10:54.429Z,1011.4
2019-03-09T08:11:54.388Z,1011.4
2019-03-09T08:12:57.025Z,1011.5
2019-03-09T08:13:54.538Z,1011.5
2019-03-09T08:14:55.188Z,1011.6
2019-03-09T08:15:54.643Z,1011.6
2019-03-09T08:16:54.636Z,1011.7
2019-03-09T08:17:55.806Z,1011.5
2019-03-09T08:18:54.564Z,1011.6
2019-03-09T08:19:54.346Z,1011.7
2019-03-09T08:20:54.448Z,1011.6
2019-03-09T08:21:54.616Z,1011.6
2019-03-09T08:22:54.567Z,1011.5
2019-03-09T08:23:56.445Z,1011.5
2019-03-09T08:24:54.624Z,1011.5
2019-03-09T08:25:54.568Z,1011.3
2019-03-09T08:26:54.567Z,1011.7
2019-03-09T08:27:54.544Z,1011.6
2019-03-09T08:28:54.497Z,1011.5
2019-03-09T08:29:54.562Z,1011.4
2019-03-09T08:30:54.637Z,1011.4
2019-03-09T08:31:54.734Z,1011.5
2019-03-09T08:32:54.596Z,1011.2
2019-03-09T08:33:54.600Z,1011.2
2019-03-09T08:34:54.660Z,1011.1
2019-03-09T08:35:54.589Z,1011.2
2019-03-09T08:36:54.661Z,1011.4
2019-03-09T08:37:54.655Z,1011.4
2019-03-09T08:38:54.644Z,1011.4
2019-03-09T08:39:54.598Z,1011.4
2019-03-09T08:40:54.744Z,1011.3
2019-03-09T08:41:54.631Z,1011.4
2019-03-09T08:42:54.769Z,1011.4
2019-03-09T08:43:54.641Z,1011.5
2019-03-09T08:44:54.685Z,1011.2
2019-03-09T08:45:54.690Z,1011.3
2019-03-09T08:46:54.751Z,1011.1
2019-03-09T08:47:54.673Z,1011.3
2019-03-09T08:48:54.785Z,1011.4
2019-03-09T08:49:54.738Z,1011.2
2019-03-09T08:50:54.718Z,1011.3
2019-03-09T08:51:54.668Z,1011.2
2019-03-09T08:52:54.621Z,1011.2
2019-03-09T08:53:54.689Z,1011.4
2019-03-09T08:54:54.799Z,1011.3
2019-03-09T08:55:54.808Z,1011.3
2019-03-09T08:56:54.761Z,1011.4
2019-03-09T08:57:54.833Z,1011.3
2019-03-09T08:58:54.808Z,1011.1
2019-03-09T08:59:54.660Z,1011.2
2019-03-09T09:00:54.720Z,1011.2
2019-03-09T09:01:54.801Z,1011.5
2019-03-09T09:02:54.887Z,1011.1
2019-03-09T09:03:54.685Z,1011.2
2019-03-09T09:04:54.681Z,1011.2
2019-03-09T09:05:54.773Z,1011.2
2019-03-09T09:06:54.725Z,1011.3
2019-03-09T09:07:54.717Z,1011.1
2019-03-09T09:08:54.457Z,1011.1
2019-03-09T09:09:54.465Z,1011.2
2019-03-09T09:10:54.477Z,1011.1
2019-03-09T09:11:54.513Z,1011.1
2019-03-09T09:12:54.484Z,1011.1
2019-03-09T09:13:54.486Z,1011.2
2019-03-09T09:14:54.510Z,1011.2
2019-03-09T09:15:54.527Z,1011.3
2019-03-09T09:16:54.498Z,1011.1
2019-03-09T09:17:54.515Z,1011.3
2019-03-09T09:18:54.523Z,1011.1
2019-03-09T09:19:54.499Z,1011.1
2019-03-09T09:20:54.515Z,1011
2019-03-09T09:21:54.542Z,1011
2019-03-09T09:22:54.590Z,1011.2
2019-03-09T09:23:54.568Z,1011.1
2019-03-09T09:24:54.551Z,1011.2
2019-03-09T09:25:54.559Z,1011.2
2019-03-09T09:26:54.570Z,1011.2
2019-03-09T09:27:54.555Z,1011.2
2019-03-09T09:28:54.525Z,1011.4
2019-03-09T09:29:54.571Z,1011.7
2019-03-09T09:30:54.542Z,1011.1
2019-03-09T09:31:54.616Z,1011.4
2019-03-09T09:32:54.585Z,1011.3
2019-03-09T09:33:54.676Z,1011.5
2019-03-09T09:34:54.578Z,1011.4
2019-03-09T09:35:54.573Z,1011.3
2019-03-09T09:36:54.551Z,1011.2
2019-03-09T09:37:54.905Z,1011.3
2019-03-09T09:38:54.594Z,1011.1
2019-03-09T09:39:54.595Z,1011.6
2019-03-09T09:40:54.623Z,1011.2
2019-03-09T09:41:54.616Z,1011.4
2019-03-09T09:42:54.701Z,1011.4
2019-03-09T09:43:54.609Z,1011.9
2019-03-09T09:44:54.622Z,1011.6
2019-03-09T09:45:54.620Z,1011.6
2019-03-09T09:46:54.669Z,1011.5
2019-03-09T09:47:54.637Z,1011.4
2019-03-09T09:48:54.648Z,1011.4
2019-03-09T09:49:54.664Z,1011.4
2019-03-09T09:50:54.692Z,1011.5
2019-03-09T09:51:54.655Z,1011.5
2019-03-09T09:52:54.686Z,1011.5
2019-03-09T09:53:54.675Z,1011.6
2019-03-09T09:54:54.710Z,1011.7
2019-03-09T09:55:54.697Z,1011.5
2019-03-09T09:56:54.728Z,1011.6
2019-03-09T09:57:54.726Z,1011.6
2019-03-09T09:58:54.723Z,1011.7
2019-03-09T09:59:54.830Z,1011.6
2019-03-09T10:00:54.725Z,1011.5
2019-03-09T10:01:54.722Z,1011.6
2019-03-09T10:02:54.739Z,1011.5
2019-03-09T10:03:54.746Z,1011.5
2019-03-09T10:04:54.775Z,1011.4
2019-03-09T10:05:54.751Z,1011.7
2019-03-09T10:06:54.802Z,1011.5
2019-03-09T10:07:54.771Z,1011.4
2019-03-09T10:08:54.837Z,1011.4
2019-03-09T10:09:54.780Z,1011.4
2019-03-09T10:10:54.808Z,1011.6
2019-03-09T10:11:54.862Z,1011.5
2019-03-09T10:12:55.851Z,1011.5
2019-03-09T10:13:54.846Z,1011.6
2019-03-09T10:14:54.872Z,1011.6
2019-03-09T10:15:55.040Z,1011.6
2019-03-09T10:16:54.825Z,1011.6
2019-03-09T10:17:54.902Z,1011.5
2019-03-09T10:18:54.866Z,1011.5
2019-03-09T10:19:54.897Z,1011.6
2019-03-09T10:20:54.901Z,1011.6
2019-03-09T10:21:57.369Z,1011.7
2019-03-09T10:23:03.323Z,1011.5
2019-03-09T10:23:54.911Z,1011.7
2019-03-09T10:24:54.945Z,1011.6
2019-03-09T10:25:54.928Z,1011.6
2019-03-09T10:26:54.905Z,1011.8
2019-03-09T10:27:54.924Z,1011.6
2019-03-09T10:28:54.932Z,1011.7
2019-03-09T10:29:54.927Z,1011.6
2019-03-09T10:30:54.915Z,1011.6
2019-03-09T10:31:54.941Z,1011.5
2019-03-09T10:32:54.977Z,1011.5
2019-03-09T10:33:54.985Z,1011.6
2019-03-09T10:34:54.969Z,1011.5
2019-03-09T10:35:54.979Z,1011.8
2019-03-09T10:36:54.991Z,1011.8
2019-03-09T10:37:54.971Z,1012
2019-03-09T10:38:55.012Z,1011.9
2019-03-09T10:39:55.010Z,1011.8
2019-03-09T10:40:55.014Z,1011.8
2019-03-09T10:41:55.121Z,1011.7
2019-03-09T10:42:55.033Z,1011.7
2019-03-09T10:43:55.006Z,1011.8
2019-03-09T10:44:55.010Z,1011.6
2019-03-09T10:45:55.033Z,1011.7
2019-03-09T10:46:55.039Z,1011.7
2019-03-09T10:47:55.082Z,1011.8
2019-03-09T10:48:55.032Z,1011.8
2019-03-09T10:49:55.046Z,1011.6
2019-03-09T10:50:55.039Z,1011.7
2019-03-09T10:51:55.093Z,1011.7
2019-03-09T10:52:55.102Z,1011.7
2019-03-09T10:53:55.065Z,1011.7
2019-03-09T10:54:55.119Z,1011.8
2019-03-09T10:55:55.125Z,1011.6
2019-03-09T10:56:55.608Z,1011.5
2019-03-09T10:57:55.114Z,1011.6
2019-03-09T10:58:55.137Z,1011.7
2019-03-09T10:59:55.145Z,1011.5
2019-03-09T11:00:55.140Z,1011.6
2019-03-09T11:01:55.110Z,1011.7
2019-03-09T11:02:55.148Z,1011.5
2019-03-09T11:03:55.135Z,1011.6
2019-03-09T11:04:55.149Z,1011.6
2019-03-09T11:05:55.148Z,1011.6
2019-03-09T11:06:55.184Z,1011.4
2019-03-09T11:07:55.147Z,1011.4
2019-03-09T11:08:55.184Z,1011.5
2019-03-09T11:09:55.255Z,1011.5
2019-03-09T11:10:55.173Z,1011.3
2019-03-09T11:11:55.172Z,1011.3
2019-03-09T11:12:55.195Z,1011.4
2019-03-09T11:13:55.176Z,1011.6
2019-03-09T11:14:56.294Z,1011.4
2019-03-09T11:15:55.172Z,1011.5
2019-03-09T11:16:55.183Z,1011.4
2019-03-09T11:17:55.196Z,1011.5
2019-03-09T11:18:55.194Z,1011.5
2019-03-09T11:19:55.247Z,1011.6
2019-03-09T11:20:55.213Z,1011.4
2019-03-09T11:21:55.215Z,1011.5
2019-03-09T11:22:55.266Z,1011.2
2019-03-09T11:23:55.306Z,1011.3
2019-03-09T11:25:03.028Z,1011.4
2019-03-09T11:25:55.223Z,1011.5
2019-03-09T11:26:55.229Z,1011.4
2019-03-09T11:27:55.226Z,1011.5
2019-03-09T11:28:55.234Z,1011.5
2019-03-09T11:29:55.276Z,1011.5
2019-03-09T11:30:55.218Z,1011.5
2019-03-09T11:31:55.240Z,1011.5
2019-03-09T11:32:55.285Z,1011.4
2019-03-09T11:33:55.315Z,1011.4
2019-03-09T11:34:55.229Z,1011.5
2019-03-09T11:35:55.253Z,1011.3
2019-03-09T11:36:55.270Z,1011.4
2019-03-09T11:37:55.242Z,1011.2
2019-03-09T11:38:55.282Z,1011.3
2019-03-09T11:39:55.247Z,1011.3
2019-03-09T11:40:57.734Z,1011.3
2019-03-09T11:41:55.292Z,1011.6
2019-03-09T11:42:55.286Z,1011.5
2019-03-09T11:43:55.282Z,1011.3
2019-03-09T11:44:55.311Z,1011.3
2019-03-09T11:45:55.289Z,1011.2
2019-03-09T11:46:55.309Z,1011.3
2019-03-09T11:47:55.327Z,1011.2
2019-03-09T11:48:55.375Z,1011.4
2019-03-09T11:49:55.355Z,1011.4
2019-03-09T11:50:55.341Z,1011.3
2019-03-09T11:51:55.305Z,1011
2019-03-09T11:52:55.316Z,1011.1
2019-03-09T11:53:55.341Z,1011.2
2019-03-09T11:54:55.353Z,1011.1
2019-03-09T11:55:55.335Z,1011.2
2019-03-09T11:56:55.334Z,1011.2
2019-03-09T11:57:55.306Z,1011.3
2019-03-09T11:58:55.322Z,1011.2
2019-03-09T11:59:55.330Z,1011.2
2019-03-09T12:00:55.327Z,1011.2
2019-03-09T12:01:55.351Z,1011.1
2019-03-09T12:02:55.381Z,1011.1
2019-03-09T12:03:55.383Z,1011.2
2019-03-09T12:04:55.368Z,1011.1
2019-03-09T12:05:55.378Z,1011.2
2019-03-09T12:06:55.386Z,1011.3
2019-03-09T12:07:55.400Z,1011.2
2019-03-09T12:08:55.388Z,1011.2
2019-03-09T12:09:55.405Z,1011.3
2019-03-09T12:10:55.384Z,1011.3
2019-03-09T12:11:55.410Z,1011.2
2019-03-09T12:12:55.402Z,1011.2
2019-03-09T12:13:55.435Z,1011.2
2019-03-09T12:14:55.372Z,1011.4
2019-03-09T12:15:55.376Z,1011.3
2019-03-09T12:16:55.419Z,1011.3
2019-03-09T12:17:55.414Z,1011.3
2019-03-09T12:18:55.405Z,1011.3
2019-03-09T12:19:55.471Z,1011.3
2019-03-09T12:20:55.443Z,1011.2
2019-03-09T12:21:55.434Z,1011.2
2019-03-09T12:23:00.818Z,1011.2
2019-03-09T12:23:55.471Z,1011.3
2019-03-09T12:24:55.418Z,1011.3
2019-03-09T12:25:57.891Z,1011.4
2019-03-09T12:26:55.445Z,1011.4
2019-03-09T12:27:58.157Z,1011.2
2019-03-09T12:28:55.413Z,1011.3
2019-03-09T12:29:55.435Z,1011.3
2019-03-09T12:30:55.423Z,1011.3
2019-03-09T12:31:55.437Z,1011.2